Moss Beach, CA (94038)

11:30 PM PDT on October 20, 2014 (GMT -0700)
94037 | Change Station
CLOSE
Current Station
Personal Weather Station
Location: Montara, CA
Elevation: 150 ft
Nearby Weather Stations
Active Advisory: Beach Hazard Statement

Elev 150 ft 37.54 °N, 122.51 °W | Updated 13 seconds ago

Overcast
Overcast
54.9 °F
Feels Like 54.9 °F
N
0.0
Wind Variable Wind from West
Gusts 0.0 mph

Today
High -- | Low -- °F
--% Chance of Precip.
Yesterday
High -- | Low -- °F
Precip. -- in
7:23 AM 6:25 PM
Waning Crescent, 7% visible
Pressure 30.07 in
Visibility 3.0 miles
Clouds Overcast 200 ft
Dew Point 52 °F
Humidity 90%
Rainfall 0.08 in
Snow Depth Not available.
UV 0 out of 12
Pollen 1.80 out of 12
Air Quality Not available.
Flu Activity Sporadic
METAR KHAF 210615Z AUTO 34003KT 3SM BR OVC002 10/10 A3007 RMK AO2

More Conditions Fewer Conditions

Pressure 30.07 in
Visibility 3.0 miles
Clouds Overcast 200 ft
Dew Point 52 °F
Humidity 90%
Rainfall 0.08 in
Snow Depth Not available.
UV 0 out of 12
Pollen 1.80 out of 12
Air Quality Not available.
Flu Activity Sporadic
METAR KHAF 210615Z AUTO 34003KT 3SM BR OVC002 10/10 A3007 RMK AO2

More Conditions Fewer Conditions

10-Day Weather Forecast

Almanac

Astronomy

Oct. 20, 2014 Rise Set
Actual Time 7:23 AM PDT 6:25 PM PDT
Civil Twilight 6:56 AM PDT 6:52 PM PDT
Nautical Twilight 6:26 AM PDT 7:22 PM PDT
Astronomical Twilight 5:55 AM PDT 7:53 PM PDT
Moon 4:19 AM PDT (10/20) 4:48 PM PDT (10/20)
Length of Visible Light 11h 55m
Length of Day
11h 02m
Tomorrow will be 2m 15s shorter.
Waning Crescent, 7% of the Moon is Illuminated
Oct 21
Waning Crescent
Oct 23
New
Oct 30
First Quarter
Nov 6
Full
Nov 14
Last Quarter

Community

WunderPhotos

Upload Photos

1,763,617 photos uploaded!

Nearby

Snow Depth

Station Depth Elevation
Blue Lakes 0 in 8000 ft
Forestdale Creek 0 in 8029 ft
Echo Peak 1 in 7800 ft
Ebbetts Pass 0 in 8700 ft
Rubicon #2 1 in 7500 ft

Earthquake Activity

City Distance Mag. Time & Date
East Foothills, California 43 miles 2.6 8:16 AM PDT
2014-10-18
Minimum magnitude displayed is 2.5.

Coastal Water Temperatures

Place Temperature
Point Reyes, CA 60.1 °F
San Francisco, CA 62.1 °F
Richmond, CA 64.0 °F

Nearby Weather Stations